Time;durP1;ratioP1;P1;durP2;ratioP2;P2;SDS_P1;SDS_P2;PMS_P1;PMS_P2;Temp;Humidity;BMP_temperature;BMP_pressure;BME280_temperature;BME280_humidity;BME280_pressure;Samples;Min_cycle;Max_cycle;Signal;HPM_P1;HPM_P2
2022/06/05 00:01:10;;;;;;;0.60;0.60;;;9.50;99.90;;;;;;5134258;27;20191;-76
2022/06/05 00:03:38;;;;;;;0.60;0.60;;;9.50;99.90;;;;;;5132917;27;20551;-76
2022/06/05 00:06:13;;;;;;;0.57;0.57;;;9.40;99.90;;;;;;5134425;27;20273;-75
2022/06/05 00:08:58;;;;;;;0.55;0.55;;;9.30;99.90;;;;;;5132800;27;20194;-76
2022/06/05 00:11:25;;;;;;;0.60;0.60;;;9.30;99.90;;;;;;5134034;27;20343;-76
2022/06/05 00:13:55;;;;;;;0.70;0.70;;;9.30;99.90;;;;;;5133932;27;20205;-76
2022/06/05 00:16:26;;;;;;;0.90;0.90;;;9.20;99.90;;;;;;5133840;27;20277;-75
2022/06/05 00:18:52;;;;;;;0.60;0.60;;;9.30;99.90;;;;;;5134055;27;20656;-75
2022/06/05 00:21:19;;;;;;;0.60;0.60;;;9.20;99.90;;;;;;5132448;27;20749;-76
2022/06/05 00:23:46;;;;;;;0.70;0.70;;;9.20;99.90;;;;;;5134012;27;20198;-76
2022/06/05 00:26:18;;;;;;;0.60;0.60;;;9.10;99.90;;;;;;5132562;27;20191;-76
2022/06/05 00:28:46;;;;;;;0.60;0.60;;;9.10;99.90;;;;;;5133818;27;20294;-76
2022/06/05 00:31:18;;;;;;;0.60;0.60;;;9.10;99.90;;;;;;5120880;27;20203;-75
2022/06/05 00:33:43;;;;;;;0.60;0.60;;;9.10;99.90;;;;;;5113132;28;20621;-76
2022/06/05 00:36:28;;;;;;;0.77;0.77;;;9.00;99.90;;;;;;5111406;28;20248;-75
2022/06/05 00:39:04;;;;;;;0.60;0.60;;;9.00;99.90;;;;;;5113153;28;20191;-76
2022/06/05 00:41:54;;;;;;;0.60;0.60;;;8.90;99.90;;;;;;5112896;28;20194;-76
2022/06/05 00:44:54;;;;;;;0.60;0.60;;;8.90;99.90;;;;;;5113006;28;20643;-76
2022/06/05 00:47:27;;;;;;;0.60;0.60;;;8.80;99.90;;;;;;5099226;28;20203;-76
2022/06/05 00:50:00;;;;;;;0.70;0.70;;;8.80;99.90;;;;;;5127200;27;20230;-76
2022/06/05 00:52:30;;;;;;;0.60;0.60;;;8.70;99.90;;;;;;5117224;27;20198;-75
2022/06/05 00:54:56;;;;;;;0.52;0.52;;;8.70;99.90;;;;;;5135658;27;20299;-76
2022/06/05 00:57:30;;;;;;;0.70;0.70;;;8.70;99.90;;;;;;5135498;27;20281;-76
2022/06/05 00:59:59;;;;;;;0.60;0.60;;;8.70;99.90;;;;;;5135560;27;20311;-76
2022/06/05 01:02:25;;;;;;;0.60;0.60;;;8.70;99.90;;;;;;5135238;27;20197;-76
2022/06/05 01:04:51;;;;;;;0.70;0.70;;;8.70;99.90;;;;;;5154295;27;20186;-76
2022/06/05 01:07:19;;;;;;;0.60;0.60;;;8.80;99.90;;;;;;5135464;27;20285;-76
2022/06/05 01:09:47;;;;;;;0.65;0.65;;;8.80;99.90;;;;;;5153956;27;20216;-76
2022/06/05 01:12:50;;;;;;;0.60;0.60;;;8.80;99.90;;;;;;5154066;27;20190;-76
2022/06/05 01:15:37;;;;;;;0.63;0.63;;;8.90;99.90;;;;;;5135522;27;20186;-76
2022/06/05 01:18:11;;;;;;;0.70;0.70;;;8.90;99.90;;;;;;5153978;27;20186;-76
2022/06/05 01:21:01;;;;;;;0.70;0.70;;;8.90;99.90;;;;;;5135351;27;20197;-76
2022/06/05 01:23:39;;;;;;;0.70;0.70;;;8.90;99.90;;;;;;5153775;27;20194;-76
2022/06/05 01:26:20;;;;;;;0.70;0.70;;;9.00;99.90;;;;;;5135748;27;20333;-76
2022/06/05 01:29:05;;;;;;;0.60;0.60;;;9.00;99.90;;;;;;5135978;27;20683;-76
2022/06/05 01:31:42;;;;;;;0.60;0.60;;;9.00;99.90;;;;;;5154304;27;20567;-76
2022/06/05 01:34:12;;;;;;;0.60;0.60;;;9.00;99.90;;;;;;5154393;27;20273;-76
2022/06/05 01:36:58;;;;;;;0.55;0.55;;;8.90;99.90;;;;;;5154421;27;20269;-76
2022/06/05 01:39:30;;;;;;;0.60;0.60;;;8.90;99.90;;;;;;5154154;27;20717;-76
2022/06/05 01:42:02;;;;;;;0.68;0.68;;;8.90;99.90;;;;;;5135671;27;20198;-75
2022/06/05 01:44:36;;;;;;;0.60;0.60;;;8.80;99.90;;;;;;5135643;27;20205;-76
2022/06/05 01:47:07;;;;;;;0.60;0.60;;;8.80;99.90;;;;;;5154454;27;20766;-75
2022/06/05 01:49:37;;;;;;;0.60;0.60;;;8.70;99.90;;;;;;5156712;27;20230;-75
2022/06/05 01:52:10;;;;;;;0.70;0.70;;;8.60;99.90;;;;;;5140095;27;20720;-76
2022/06/05 01:55:08;;;;;;;0.57;0.57;;;8.60;99.90;;;;;;5157558;27;20213;-75
2022/06/05 01:57:35;;;;;;;0.60;0.60;;;8.60;99.90;;;;;;5052080;27;20202;-75
2022/06/05 02:00:09;;;;;;;0.60;0.60;;;8.50;99.90;;;;;;5138789;27;20301;-76
2022/06/05 02:02:44;;;;;;;0.60;0.60;;;8.60;99.90;;;;;;5135648;27;20280;-76
2022/06/05 02:05:18;;;;;;;0.60;0.60;;;8.50;99.90;;;;;;5157886;27;20197;-75
2022/06/05 02:07:50;;;;;;;0.60;0.60;;;8.50;99.90;;;;;;5139548;27;20194;-76
2022/06/05 02:10:25;;;;;;;0.60;0.60;;;8.50;99.90;;;;;;5139425;27;20220;-75
2022/06/05 02:12:53;;;;;;;0.60;0.60;;;8.40;99.90;;;;;;5139468;27;20570;-75
2022/06/05 02:15:20;;;;;;;0.60;0.60;;;8.50;99.90;;;;;;5139388;27;20190;-75
2022/06/05 02:17:46;;;;;;;0.60;0.60;;;8.50;99.90;;;;;;5139237;27;20195;-75
2022/06/05 02:20:12;;;;;;;0.73;0.73;;;8.50;99.90;;;;;;5139253;27;20194;-75
2022/06/05 02:22:43;;;;;;;0.55;0.55;;;8.50;99.90;;;;;;5139022;27;20292;-75
2022/06/05 02:25:10;;;;;;;0.70;0.70;;;8.40;99.90;;;;;;5157647;27;20679;-75
2022/06/05 02:27:36;;;;;;;0.80;0.80;;;8.50;99.90;;;;;;5157500;27;20186;-75
2022/06/05 02:30:03;;;;;;;0.60;0.60;;;8.50;99.90;;;;;;5157569;27;20206;-75
2022/06/05 02:33:05;;;;;;;0.70;0.70;;;8.50;99.90;;;;;;5138233;27;20194;-75
2022/06/05 02:35:49;;;;;;;0.60;0.60;;;8.50;99.90;;;;;;5114452;27;20233;-75
2022/06/05 02:38:27;;;;;;;0.60;0.60;;;8.60;99.90;;;;;;5138682;27;20554;-76
2022/06/05 02:40:59;;;;;;;1.75;1.10;;;8.60;99.90;;;;;;5157204;27;20198;-75
2022/06/05 02:44:28;;;;;;;0.60;0.60;;;8.70;99.90;;;;;;5117958;27;20202;-75
2022/06/05 02:46:48;;;;;;;0.60;0.60;;;8.70;99.90;;;;;;5152056;27;20205;-76
2022/06/05 02:49:27;;;;;;;0.70;0.70;;;8.60;99.90;;;;;;5134532;27;20222;-76
2022/06/05 02:51:56;;;;;;;0.60;0.60;;;8.60;99.90;;;;;;5136554;27;20187;-75
2022/06/05 02:54:26;;;;;;;0.60;0.60;;;8.60;99.90;;;;;;5135009;27;20604;-76
2022/06/05 02:56:55;;;;;;;0.60;0.60;;;8.70;99.90;;;;;;5136485;27;20278;-75
2022/06/05 02:59:25;;;;;;;0.60;0.60;;;8.70;99.90;;;;;;5134413;27;20779;-76
2022/06/05 03:04:35;;;;;;;0.60;0.60;;;8.70;99.90;;;;;;5135874;27;20202;-75
2022/06/05 03:07:00;;;;;;;0.65;0.65;;;8.70;99.90;;;;;;5136121;27;20258;-75
2022/06/05 03:09:26;;;;;;;0.93;0.93;;;8.70;99.90;;;;;;5134485;27;20242;-76
2022/06/05 03:11:52;;;;;;;0.68;0.68;;;8.70;99.90;;;;;;5134793;27;20282;-75
2022/06/05 03:14:18;;;;;;;0.60;0.60;;;8.70;99.90;;;;;;5134031;27;20335;-76
2022/06/05 03:16:43;;;;;;;0.75;0.75;;;8.70;99.90;;;;;;5134494;27;20191;-75
2022/06/05 03:19:10;;;;;;;0.57;0.57;;;8.80;99.90;;;;;;5134756;27;20199;-75
2022/06/05 03:21:37;;;;;;;0.60;0.60;;;8.90;99.90;;;;;;5136138;27;20684;-76
2022/06/05 03:24:04;;;;;;;0.60;0.60;;;9.10;99.90;;;;;;5135964;27;20237;-75
2022/06/05 03:26:31;;;;;;;0.88;0.88;;;9.30;99.90;;;;;;5135677;27;20668;-75
2022/06/05 03:28:57;;;;;;;0.60;0.60;;;9.50;99.90;;;;;;5134158;27;20207;-75
2022/06/05 03:31:23;;;;;;;0.50;0.50;;;9.60;99.90;;;;;;5133685;27;20217;-75
2022/06/05 03:33:49;;;;;;;0.70;0.70;;;9.80;99.90;;;;;;5134318;27;20274;-75
2022/06/05 03:36:16;;;;;;;0.70;0.70;;;9.80;99.90;;;;;;5134190;27;20187;-75
2022/06/05 03:38:43;;;;;;;0.60;0.60;;;9.90;99.90;;;;;;5133844;27;20649;-76
2022/06/05 03:41:09;;;;;;;0.60;0.60;;;10.10;99.90;;;;;;5133604;27;20195;-75
2022/06/05 03:43:36;;;;;;;0.55;0.55;;;10.20;99.90;;;;;;5135136;27;20274;-75
2022/06/05 03:46:07;;;;;;;0.57;0.57;;;10.30;99.90;;;;;;5134099;27;20191;-75
2022/06/05 03:48:34;;;;;;;0.60;0.60;;;10.40;99.90;;;;;;5138000;27;20197;-75
2022/06/05 03:51:04;;;;;;;0.70;0.70;;;10.40;99.90;;;;;;5137349;27;20214;-75
2022/06/05 03:53:30;;;;;;;0.75;0.75;;;10.40;99.90;;;;;;5155770;27;20601;-75
2022/06/05 03:55:55;;;;;;;0.50;0.50;;;10.40;99.90;;;;;;5136639;27;20197;-76
2022/06/05 03:58:21;;;;;;;0.90;0.90;;;10.40;99.90;;;;;;5141298;27;20195;-75
2022/06/05 04:00:47;;;;;;;0.50;0.50;;;10.30;99.90;;;;;;5116383;27;20198;-75
2022/06/05 04:03:13;;;;;;;0.57;0.57;;;10.20;99.90;;;;;;5134934;27;20229;-76
2022/06/05 04:05:38;;;;;;;0.68;0.68;;;10.10;99.90;;;;;;5116545;27;20214;-76
2022/06/05 04:08:04;;;;;;;2.15;1.15;;;9.90;99.90;;;;;;5134977;27;20190;-75
2022/06/05 04:10:30;;;;;;;1.00;0.95;;;9.80;99.90;;;;;;5115461;28;20214;-76
2022/06/05 04:12:57;;;;;;;0.80;0.80;;;9.70;99.90;;;;;;5134851;27;20668;-77
2022/06/05 04:15:23;;;;;;;0.63;0.63;;;9.80;99.90;;;;;;5121886;27;20182;-76
2022/06/05 04:17:49;;;;;;;0.60;0.60;;;9.80;99.90;;;;;;5155578;27;20265;-75
2022/06/05 04:20:14;;;;;;;0.50;0.50;;;9.80;99.90;;;;;;5137107;27;20223;-76
2022/06/05 04:22:41;;;;;;;0.60;0.60;;;9.80;99.90;;;;;;5155185;27;20276;-75
2022/06/05 04:25:10;;;;;;;0.55;0.55;;;9.80;99.90;;;;;;5155191;27;20186;-76
2022/06/05 04:27:37;;;;;;;1.00;0.98;;;10.00;99.90;;;;;;5136456;27;20649;-76
2022/06/05 04:30:03;;;;;;;0.60;0.60;;;10.20;99.90;;;;;;5136169;27;20209;-76
2022/06/05 04:32:29;;;;;;;0.60;0.60;;;10.40;99.90;;;;;;5154547;27;20238;-76
2022/06/05 04:34:55;;;;;;;0.63;0.63;;;10.70;99.90;;;;;;5155176;27;20276;-76
2022/06/05 04:37:21;;;;;;;0.40;0.40;;;11.00;99.90;;;;;;5136279;27;20201;-76
2022/06/05 04:39:47;;;;;;;0.50;0.50;;;11.30;99.90;;;;;;5155082;27;20278;-76
2022/06/05 04:42:12;;;;;;;0.60;0.60;;;11.60;99.90;;;;;;5136339;27;20324;-76
2022/06/05 04:44:38;;;;;;;0.50;0.50;;;11.90;99.90;;;;;;5136313;27;20197;-75
2022/06/05 04:47:04;;;;;;;0.55;0.55;;;12.20;99.90;;;;;;5155723;27;20190;-75
2022/06/05 04:49:30;;;;;;;0.95;0.65;;;12.40;99.90;;;;;;5123794;27;20590;-76
2022/06/05 04:51:56;;;;;;;0.50;0.50;;;12.70;99.90;;;;;;5114273;28;20213;-76
2022/06/05 04:54:22;;;;;;;0.82;0.82;;;12.80;99.90;;;;;;5113760;28;20216;-75
2022/06/05 04:56:48;;;;;;;1.77;1.17;;;13.00;99.90;;;;;;5111669;28;20202;-76
2022/06/05 04:59:14;;;;;;;0.70;0.70;;;13.10;99.90;;;;;;5091921;28;20191;-75
2022/06/05 05:01:40;;;;;;;0.70;0.70;;;13.30;99.90;;;;;;5092067;28;20705;-76
2022/06/05 05:04:10;;;;;;;0.85;0.50;;;13.40;99.90;;;;;;5092221;28;20212;-76
2022/06/05 05:06:37;;;;;;;0.50;0.50;;;13.50;99.90;;;;;;5092015;28;20192;-76
2022/06/05 05:09:04;;;;;;;0.60;0.60;;;13.70;99.90;;;;;;5091234;28;20215;-76
2022/06/05 05:11:30;;;;;;;0.50;0.50;;;13.90;99.90;;;;;;5096808;28;20677;-76
2022/06/05 05:13:57;;;;;;;0.50;0.50;;;14.00;99.90;;;;;;5113321;28;20206;-76
2022/06/05 05:16:24;;;;;;;0.40;0.40;;;14.10;99.90;;;;;;5113290;28;20545;-76
2022/06/05 05:18:50;;;;;;;0.82;0.82;;;14.20;99.90;;;;;;5113405;28;20190;-76
2022/06/05 05:21:19;;;;;;;0.90;0.75;;;14.20;99.90;;;;;;5113373;28;20195;-76
2022/06/05 05:23:47;;;;;;;0.40;0.40;;;14.30;99.90;;;;;;5115810;28;20199;-76
2022/06/05 05:26:21;;;;;;;0.52;0.52;;;14.40;99.90;;;;;;5116169;28;20222;-76
2022/06/05 05:28:47;;;;;;;14.27;1.08;;;14.60;99.90;;;;;;5116331;28;20221;-76
2022/06/05 05:31:17;;;;;;;0.65;0.60;;;14.70;99.90;;;;;;5117397;28;20306;-76
2022/06/05 05:33:43;;;;;;;0.43;0.43;;;14.80;99.90;;;;;;5118270;27;20618;-76
2022/06/05 05:36:10;;;;;;;0.60;0.60;;;14.90;99.90;;;;;;5136620;27;20681;-76
2022/06/05 05:38:36;;;;;;;0.40;0.40;;;15.10;99.90;;;;;;5136289;27;20247;-76
2022/06/05 05:43:48;;;;;;;0.80;0.80;;;15.40;99.90;;;;;;5138250;27;20565;-76
2022/06/05 05:46:16;;;;;;;0.47;0.47;;;15.60;99.90;;;;;;5137631;27;20187;-76
2022/06/05 05:48:42;;;;;;;0.50;0.50;;;15.70;99.90;;;;;;5133286;27;20645;-76
2022/06/05 05:51:13;;;;;;;0.40;0.40;;;15.90;99.90;;;;;;5117127;28;20242;-77
2022/06/05 05:53:40;;;;;;;0.40;0.40;;;16.10;99.90;;;;;;5115651;28;20195;-77
2022/06/05 05:56:10;;;;;;;0.52;0.52;;;16.10;99.90;;;;;;5117018;28;20610;-76
2022/06/05 05:58:37;;;;;;;0.40;0.40;;;16.20;99.90;;;;;;5100025;28;20188;-76
2022/06/05 06:01:07;;;;;;;0.40;0.40;;;16.30;99.90;;;;;;5094637;28;20253;-76
2022/06/05 06:03:34;;;;;;;0.40;0.40;;;16.40;99.90;;;;;;5096288;28;20192;-76
2022/06/05 06:06:02;;;;;;;0.68;0.68;;;16.60;99.90;;;;;;5112016;28;20591;-77
2022/06/05 06:08:28;;;;;;;0.30;0.30;;;16.60;99.90;;;;;;5105280;28;20264;-76
2022/06/05 06:10:54;;;;;;;0.40;0.40;;;16.70;99.90;;;;;;5116492;28;20572;-76
2022/06/05 06:13:20;;;;;;;0.50;0.50;;;16.70;99.90;;;;;;5116398;28;20274;-76
2022/06/05 06:15:46;;;;;;;0.30;0.30;;;16.80;99.90;;;;;;5115315;28;20203;-77
2022/06/05 06:18:12;;;;;;;0.95;0.47;;;17.00;99.90;;;;;;5115366;28;20219;-78
2022/06/05 06:20:38;;;;;;;0.43;0.43;;;17.10;99.90;;;;;;5116214;28;20665;-77
2022/06/05 06:23:04;;;;;;;0.47;0.47;;;17.20;99.90;;;;;;5116417;28;20199;-77
2022/06/05 06:25:30;;;;;;;0.40;0.40;;;17.50;99.90;;;;;;5116143;28;20667;-77
2022/06/05 06:27:56;;;;;;;0.40;0.40;;;17.60;99.90;;;;;;5116384;28;20278;-77
2022/06/05 06:30:22;;;;;;;0.73;0.73;;;17.90;99.90;;;;;;5120224;27;20202;-77
2022/06/05 06:32:47;;;;;;;0.40;0.40;;;17.90;99.90;;;;;;5136949;27;20267;-77
2022/06/05 06:35:13;;;;;;;0.40;0.40;;;18.00;99.90;;;;;;5136015;27;20187;-78
2022/06/05 06:37:39;;;;;;;0.50;0.50;;;18.10;99.90;;;;;;5134566;27;20730;-77
2022/06/05 06:40:05;;;;;;;0.65;0.65;;;18.40;99.90;;;;;;5135663;27;20746;-77
2022/06/05 06:42:31;;;;;;;0.30;0.30;;;18.60;99.90;;;;;;5135015;27;20669;-77
2022/06/05 06:44:57;;;;;;;0.47;0.47;;;18.70;99.90;;;;;;5136548;27;20285;-76
2022/06/05 06:47:23;;;;;;;0.63;0.50;;;18.80;99.90;;;;;;5135126;27;20290;-77
2022/06/05 06:49:49;;;;;;;0.60;0.47;;;18.70;99.90;;;;;;5122609;27;20246;-76
2022/06/05 06:52:15;;;;;;;0.38;0.38;;;18.80;99.90;;;;;;5115905;28;20534;-77
2022/06/05 06:54:42;;;;;;;0.30;0.30;;;18.90;99.90;;;;;;5114407;28;20195;-77
2022/06/05 06:57:09;;;;;;;0.20;0.20;;;18.90;99.90;;;;;;5112090;28;20216;-77
2022/06/05 06:59:35;;;;;;;0.75;0.35;;;19.10;99.90;;;;;;5095181;28;20261;-77
2022/06/05 07:02:00;;;;;;;0.65;0.45;;;19.10;99.90;;;;;;5093914;28;20687;-77
2022/06/05 07:04:26;;;;;;;0.40;0.35;;;19.20;99.90;;;;;;5101862;28;20223;-77
2022/06/05 07:06:52;;;;;;;1.85;0.77;;;19.40;99.90;;;;;;5114375;28;20195;-77
2022/06/05 07:09:18;;;;;;;0.30;0.30;;;19.60;99.90;;;;;;5114071;28;20199;-77
2022/06/05 07:11:44;;;;;;;3.15;0.95;;;19.70;99.90;;;;;;5114211;28;20278;-77
2022/06/05 07:14:10;;;;;;;0.20;0.20;;;19.70;99.90;;;;;;5113500;28;20192;-77
2022/06/05 07:16:37;;;;;;;0.40;0.40;;;19.60;99.90;;;;;;5113908;28;20282;-77
2022/06/05 07:19:03;;;;;;;0.28;0.28;;;19.80;99.90;;;;;;5115463;28;20642;-77
2022/06/05 07:21:29;;;;;;;0.63;0.32;;;19.90;99.90;;;;;;5113918;28;20229;-77
2022/06/05 07:23:56;;;;;;;0.57;0.35;;;20.20;99.90;;;;;;5115272;28;20680;-77
2022/06/05 07:26:24;;;;;;;0.40;0.40;;;20.30;99.90;;;;;;5117186;27;20195;-77
2022/06/05 07:28:50;;;;;;;0.80;0.47;;;20.40;99.90;;;;;;5135849;27;20618;-77
2022/06/05 07:31:17;;;;;;;0.52;0.38;;;20.50;99.90;;;;;;5134389;27;20227;-77
2022/06/05 07:33:43;;;;;;;1.55;0.82;;;20.70;99.90;;;;;;5134296;27;20191;-78
2022/06/05 07:36:16;;;;;;;0.30;0.30;;;20.90;99.90;;;;;;5134455;27;20679;-77
2022/06/05 07:38:42;;;;;;;0.65;0.40;;;21.30;99.90;;;;;;5133976;27;20568;-78
2022/06/05 07:41:22;;;;;;;0.35;0.35;;;21.00;99.90;;;;;;5135509;27;20277;-77
2022/06/05 07:43:48;;;;;;;0.70;0.50;;;21.00;99.90;;;;;;5134180;27;20195;-77
2022/06/05 07:46:14;;;;;;;0.22;0.22;;;21.00;99.90;;;;;;5135677;27;20187;-78
2022/06/05 07:48:40;;;;;;;10.20;2.20;;;21.00;99.90;;;;;;5139081;27;20692;-78
2022/06/05 07:56:43;;;;;;;0.30;0.30;;;21.30;99.90;;;;;;5155867;27;20596;-77
2022/06/05 07:59:09;;;;;;;0.20;0.20;;;21.50;99.90;;;;;;5135256;27;20190;-78
2022/06/05 08:01:36;;;;;;;0.40;0.40;;;21.70;99.90;;;;;;5132295;27;20202;-78
2022/06/05 08:04:03;;;;;;;0.25;0.25;;;21.80;99.90;;;;;;5137062;27;20194;-77
2022/06/05 08:06:29;;;;;;;0.85;0.75;;;21.50;99.90;;;;;;5155623;27;20186;-77
2022/06/05 08:08:55;;;;;;;0.30;0.30;;;21.60;99.90;;;;;;5136511;27;20559;-77
2022/06/05 08:11:21;;;;;;;1.17;0.77;;;21.90;99.90;;;;;;5155255;27;20256;-77
2022/06/05 08:13:46;;;;;;;0.40;0.40;;;22.30;99.90;;;;;;5133564;27;20308;-78
2022/06/05 08:16:13;;;;;;;0.20;0.20;;;22.30;99.90;;;;;;5134942;27;20195;-78
2022/06/05 08:18:39;;;;;;;1.70;1.00;;;22.40;99.90;;;;;;5133997;27;20668;-78
2022/06/05 08:21:05;;;;;;;0.30;0.30;;;22.40;99.90;;;;;;5135023;27;20278;-78
2022/06/05 08:23:31;;;;;;;0.50;0.50;;;22.70;99.90;;;;;;5135956;27;20231;-78
2022/06/05 08:25:57;;;;;;;0.68;0.22;;;22.90;99.90;;;;;;5136538;27;20198;-78
2022/06/05 08:28:25;;;;;;;0.25;0.25;;;23.10;99.90;;;;;;5136625;27;20547;-78
2022/06/05 08:30:52;;;;;;;1.13;0.60;;;23.00;98.30;;;;;;5136717;27;20697;-78
2022/06/05 08:33:18;;;;;;;0.15;0.15;;;23.00;99.90;;;;;;5155195;27;20598;-78
2022/06/05 08:35:49;;;;;;;0.20;0.20;;;23.50;99.50;;;;;;5136657;27;20237;-78
2022/06/05 08:41:29;;;;;;;0.10;0.10;;;23.80;93.00;;;;;;5155103;27;20234;-77
2022/06/05 08:44:14;;;;;;;0.30;0.30;;;24.20;93.70;;;;;;5155006;27;20186;-77
2022/06/05 08:46:52;;;;;;;0.73;0.45;;;23.90;78.90;;;;;;5136322;27;20285;-77
2022/06/05 08:49:45;;;;;;;0.10;0.10;;;23.80;79.00;;;;;;5125048;27;20223;-77
2022/06/05 08:52:27;;;;;;;0.90;0.63;;;24.00;79.10;;;;;;5112430;28;20575;-77
2022/06/05 08:55:05;;;;;;;1.98;1.00;;;23.90;81.70;;;;;;5113795;28;20723;-77
2022/06/05 08:57:48;;;;;;;0.15;0.15;;;24.00;85.30;;;;;;5104560;28;20529;-78
2022/06/05 09:00:27;;;;;;;0.20;0.20;;;24.30;83.80;;;;;;5091988;28;20196;-77
2022/06/05 09:03:02;;;;;;;0.20;0.20;;;24.60;84.40;;;;;;5091701;28;20200;-77
2022/06/05 09:05:41;;;;;;;0.13;0.13;;;24.70;80.70;;;;;;5093121;28;20542;-78
2022/06/05 09:08:17;;;;;;;0.20;0.20;;;24.70;81.00;;;;;;5091893;28;20245;-77
2022/06/05 09:10:53;;;;;;;0.20;0.20;;;24.30;77.50;;;;;;5093123;28;20268;-76
2022/06/05 09:13:22;;;;;;;0.10;0.10;;;24.00;84.20;;;;;;5091792;28;20200;-77
2022/06/05 09:16:08;;;;;;;0.25;0.22;;;23.50;83.00;;;;;;5092022;28;20196;-77
2022/06/05 09:18:43;;;;;;;0.20;0.20;;;23.80;84.40;;;;;;5094016;28;20196;-77
2022/06/05 09:21:24;;;;;;;0.15;0.15;;;24.20;81.80;;;;;;5132699;28;20667;-77
2022/06/05 09:24:10;;;;;;;0.25;0.25;;;24.50;78.60;;;;;;5132661;28;20242;-78
2022/06/05 09:26:58;;;;;;;0.70;0.40;;;25.10;81.30;;;;;;5132367;28;20195;-77
2022/06/05 09:29:45;;;;;;;0.10;0.10;;;25.70;81.30;;;;;;5132381;28;20194;-77
2022/06/05 09:32:44;;;;;;;0.40;0.40;;;25.80;76.60;;;;;;5132402;28;20225;-76
2022/06/05 09:35:20;;;;;;;0.17;0.17;;;25.00;76.10;;;;;;5132592;28;20191;-76
2022/06/05 09:37:57;;;;;;;0.20;0.20;;;24.80;78.10;;;;;;5132591;28;20277;-76
2022/06/05 09:41:06;;;;;;;0.20;0.20;;;24.90;77.10;;;;;;5133576;28;20191;-77
2022/06/05 09:43:44;;;;;;;0.17;0.17;;;24.80;74.70;;;;;;5126502;28;20211;-77
2022/06/05 09:46:32;;;;;;;0.20;0.20;;;24.90;73.70;;;;;;5132519;28;20669;-77
2022/06/05 09:49:07;;;;;;;0.10;0.10;;;24.70;73.00;;;;;;5140082;27;20212;-77
2022/06/05 09:51:37;;;;;;;0.20;0.20;;;25.00;74.00;;;;;;5135778;27;20213;-77
2022/06/05 09:54:22;;;;;;;0.20;0.20;;;25.20;73.80;;;;;;5119164;27;20224;-76
2022/06/05 10:00:18;;;;;;;0.28;0.28;;;25.90;68.80;;;;;;5154476;27;20233;-77
2022/06/05 10:02:49;;;;;;;0.10;0.10;;;25.90;67.00;;;;;;5135359;27;20747;-77
2022/06/05 10:05:24;;;;;;;0.10;0.10;;;26.10;68.10;;;;;;5154253;27;20262;-77
2022/06/05 10:07:56;;;;;;;0.20;0.20;;;26.50;69.10;;;;;;5135616;27;20198;-77
2022/06/05 10:10:32;;;;;;;0.10;0.10;;;26.30;65.60;;;;;;5156863;27;20220;-77
2022/06/05 10:13:23;;;;;;;0.20;0.20;;;26.40;65.50;;;;;;5157878;27;20552;-77
2022/06/05 10:16:02;;;;;;;0.28;0.20;;;26.80;66.50;;;;;;5139230;27;20190;-77
2022/06/05 10:18:39;;;;;;;0.68;0.47;;;27.30;66.50;;;;;;5157412;27;20190;-77
2022/06/05 10:21:14;;;;;;;0.10;0.10;;;27.10;65.60;;;;;;5157799;27;20193;-77
2022/06/05 10:24:08;;;;;;;0.20;0.20;;;26.70;62.50;;;;;;5139057;27;20205;-77
2022/06/05 10:26:35;;;;;;;0.63;0.63;;;26.50;60.20;;;;;;5138810;27;20267;-76
2022/06/05 10:29:21;;;;;;;0.30;0.30;;;26.70;59.80;;;;;;5138963;27;20202;-76
2022/06/05 10:32:01;;;;;;;0.28;0.28;;;26.40;59.50;;;;;;5138877;27;20214;-76
2022/06/05 10:35:01;;;;;;;0.90;0.20;;;26.20;63.30;;;;;;5138668;27;20736;-76
2022/06/05 10:38:11;;;;;;;0.20;0.20;;;26.50;68.30;;;;;;5157134;27;20182;-77
2022/06/05 10:40:51;;;;;;;0.10;0.10;;;27.10;64.80;;;;;;5130703;27;20206;-77
2022/06/05 10:43:24;;;;;;;0.10;0.10;;;27.40;62.00;;;;;;5157371;27;20181;-76
2022/06/05 10:46:26;;;;;;;0.10;0.10;;;27.20;61.60;;;;;;5157344;27;20234;-77
2022/06/05 10:48:56;;;;;;;0.10;0.10;;;26.90;61.80;;;;;;5138173;27;20301;-77
2022/06/05 10:51:32;;;;;;;0.10;0.10;;;27.30;64.50;;;;;;5157029;27;20209;-77
2022/06/05 10:54:19;;;;;;;0.17;0.17;;;27.80;60.10;;;;;;5156995;27;20182;-76
2022/06/05 10:56:54;;;;;;;0.10;0.10;;;27.80;58.40;;;;;;5138499;27;20181;-76
2022/06/05 10:59:59;;;;;;;0.10;0.10;;;28.20;62.90;;;;;;5138391;27;20334;-76
2022/06/05 11:02:43;;;;;;;0.10;0.10;;;28.40;55.80;;;;;;5132307;27;20217;-75
2022/06/05 11:05:26;;;;;;;0.10;0.10;;;27.90;54.00;;;;;;5138282;27;20193;-77
2022/06/05 11:08:17;;;;;;;0.38;0.30;;;27.70;55.50;;;;;;5138327;27;20286;-77
2022/06/05 11:14:17;;;;;;;0.20;0.20;;;28.00;58.80;;;;;;5156717;27;20204;-77
2022/06/05 11:17:07;;;;;;;0.10;0.10;;;28.00;54.80;;;;;;5155919;27;20197;-77
2022/06/05 11:20:02;;;;;;;0.10;0.10;;;28.10;58.40;;;;;;5156125;27;20226;-77
2022/06/05 11:22:29;;;;;;;0.10;0.10;;;28.80;59.00;;;;;;5138133;27;20189;-77
2022/06/05 11:25:22;;;;;;;0.10;0.10;;;28.10;57.60;;;;;;5137395;27;20585;-77
2022/06/05 11:27:48;;;;;;;0.10;0.10;;;28.10;54.00;;;;;;5137713;27;20190;-78
2022/06/05 11:30:26;;;;;;;0.10;0.10;;;27.90;56.30;;;;;;5156385;27;20199;-77
2022/06/05 11:32:59;;;;;;;0.10;0.10;;;28.00;53.40;;;;;;5137834;27;20186;-77
2022/06/05 11:35:30;;;;;;;0.10;0.10;;;27.40;56.00;;;;;;5137429;27;20198;-77
2022/06/05 11:38:08;;;;;;;0.13;0.13;;;27.80;54.70;;;;;;5137867;27;20247;-77
2022/06/05 11:40:56;;;;;;;0.17;0.17;;;27.80;54.70;;;;;;5137448;27;20573;-77
2022/06/05 11:43:33;;;;;;;0.38;0.38;;;27.90;56.40;;;;;;5137575;27;20197;-77
2022/06/05 11:46:04;;;;;;;0.22;0.22;;;28.20;55.20;;;;;;5137420;27;20197;-77
2022/06/05 11:48:42;;;;;;;0.10;0.10;;;27.80;54.50;;;;;;5154897;27;20193;-77
2022/06/05 11:51:21;;;;;;;0.25;0.25;;;27.40;56.50;;;;;;5151695;27;20177;-77
2022/06/05 11:53:59;;;;;;;0.10;0.10;;;27.70;58.70;;;;;;5137438;27;20201;-77
2022/06/05 11:56:59;;;;;;;0.15;0.15;;;27.80;56.60;;;;;;5137052;27;20193;-77
2022/06/05 11:59:46;;;;;;;0.15;0.15;;;28.40;60.90;;;;;;5155716;27;20194;-77
2022/06/05 12:02:15;;;;;;;0.10;0.10;;;28.60;54.80;;;;;;5137098;27;20737;-77
2022/06/05 12:04:56;;;;;;;0.10;0.10;;;28.60;55.90;;;;;;5137267;27;20250;-77
2022/06/05 12:07:25;;;;;;;0.15;0.15;;;28.70;56.40;;;;;;5155901;27;20519;-77
2022/06/05 12:09:55;;;;;;;0.55;0.47;;;29.30;55.20;;;;;;5137012;27;20189;-77
2022/06/05 12:12:40;;;;;;;0.00;0.00;;;29.30;54.20;;;;;;5136892;27;20256;-77
2022/06/05 12:15:20;;;;;;;1.13;0.43;;;28.70;54.60;;;;;;5132930;27;20209;-77
2022/06/05 12:17:56;;;;;;;0.28;0.28;;;28.60;58.70;;;;;;5134777;27;20671;-77
2022/06/05 12:20:55;;;;;;;0.10;0.10;;;28.80;59.30;;;;;;5134420;27;20276;-77
2022/06/05 12:23:40;;;;;;;0.45;0.35;;;28.80;58.30;;;;;;5102209;27;20575;-77
2022/06/05 12:26:30;;;;;;;0.10;0.10;;;29.10;58.80;;;;;;5116233;27;20201;-77
2022/06/05 12:29:10;;;;;;;0.10;0.10;;;29.80;58.00;;;;;;5116164;27;20191;-77
2022/06/05 12:31:51;;;;;;;0.50;0.47;;;30.10;59.40;;;;;;5115319;28;20233;-77
2022/06/05 12:34:23;;;;;;;0.63;0.43;;;29.70;59.10;;;;;;5134450;27;20243;-77
2022/06/05 12:37:06;;;;;;;0.17;0.17;;;29.20;57.10;;;;;;5116184;27;20624;-77
2022/06/05 12:39:37;;;;;;;0.08;0.08;;;29.30;60.20;;;;;;5115737;27;20198;-77
2022/06/05 12:42:27;;;;;;;0.45;0.35;;;29.20;59.80;;;;;;5125203;27;20280;-77
2022/06/05 12:45:05;;;;;;;0.10;0.10;;;29.00;60.30;;;;;;5136493;27;20686;-77
2022/06/05 12:47:34;;;;;;;0.10;0.10;;;29.10;60.10;;;;;;5136300;27;20185;-77
2022/06/05 12:50:02;;;;;;;0.10;0.10;;;29.50;58.10;;;;;;5154563;27;20341;-77
2022/06/05 12:52:43;;;;;;;0.20;0.20;;;29.10;61.00;;;;;;5136803;27;20221;-77
2022/06/05 12:55:45;;;;;;;0.50;0.50;;;29.10;62.10;;;;;;5154968;27;20280;-77
2022/06/05 12:58:26;;;;;;;0.10;0.10;;;29.50;62.20;;;;;;5136381;27;20667;-77
2022/06/05 13:01:02;;;;;;;0.13;0.13;;;29.10;60.50;;;;;;5136232;27;20580;-77
2022/06/05 13:03:43;;;;;;;0.30;0.30;;;29.40;63.70;;;;;;5135840;27;20438;-77
2022/06/05 13:06:15;;;;;;;0.03;0.03;;;29.80;59.50;;;;;;5154286;27;20181;-77
2022/06/05 13:08:52;;;;;;;0.25;0.22;;;29.30;62.40;;;;;;5154724;27;20257;-77
2022/06/05 13:11:59;;;;;;;0.17;0.17;;;29.30;62.90;;;;;;5154947;27;20198;-77
2022/06/05 13:14:49;;;;;;;0.17;0.10;;;29.40;62.90;;;;;;5050106;28;20595;-77
2022/06/05 13:17:42;;;;;;;1.65;0.95;;;28.30;63.40;;;;;;5030835;28;20201;-77
2022/06/05 13:20:33;;;;;;;0.15;0.15;;;27.90;67.50;;;;;;5096958;28;20213;-77
2022/06/05 13:23:09;;;;;;;0.50;0.50;;;28.00;67.20;;;;;;5115597;28;20532;-77
2022/06/05 13:25:50;;;;;;;0.13;0.13;;;28.00;65.40;;;;;;5133711;28;20190;-78
2022/06/05 13:28:31;;;;;;;2.65;1.08;;;28.50;67.20;;;;;;5133861;28;20580;-76
2022/06/05 13:31:27;;;;;;;1.10;0.25;;;28.60;66.60;;;;;;5115374;28;20232;-76
2022/06/05 13:34:13;;;;;;;0.32;0.32;;;28.80;66.90;;;;;;5134060;28;20215;-77
2022/06/05 13:36:54;;;;;;;0.20;0.20;;;28.60;62.80;;;;;;5133742;28;20201;-77
2022/06/05 13:39:38;;;;;;;0.22;0.22;;;28.80;65.10;;;;;;5150903;27;20193;-77
2022/06/05 13:42:22;;;;;;;0.30;0.20;;;29.20;66.40;;;;;;5135299;27;20230;-77
2022/06/05 13:45:00;;;;;;;0.17;0.15;;;29.40;62.90;;;;;;5158174;27;20193;-77